createdAt,value
2018-08-17T00:00:56.310Z,25.06
2018-08-17T00:03:24.874Z,25.06
2018-08-17T00:05:53.406Z,25.07
2018-08-17T00:08:22.021Z,25.06
2018-08-17T00:10:50.557Z,25.06
2018-08-17T00:13:19.041Z,25.05
2018-08-17T00:15:47.578Z,25.06
2018-08-17T00:18:16.106Z,25.06
2018-08-17T00:20:44.626Z,25.06
2018-08-17T00:23:13.145Z,25.06
2018-08-17T00:25:41.695Z,25.06
2018-08-17T00:28:10.302Z,25.06
2018-08-17T00:30:38.918Z,25.06
2018-08-17T00:33:07.943Z,25.06
2018-08-17T00:35:36.445Z,25.06
2018-08-17T00:38:05.274Z,25.06
2018-08-17T00:40:33.876Z,25.05
2018-08-17T00:43:02.406Z,25.04
2018-08-17T00:45:30.980Z,25.05
2018-08-17T00:47:59.527Z,25.05
2018-08-17T00:50:28.046Z,25.04
2018-08-17T00:52:56.616Z,25.04
2018-08-17T00:55:25.228Z,25.03
2018-08-17T00:57:53.794Z,25.04
2018-08-17T01:00:22.298Z,25.03
2018-08-17T01:02:50.778Z,25.04
2018-08-17T01:05:19.523Z,25.03
2018-08-17T01:07:48.007Z,25.04
2018-08-17T01:10:16.766Z,25.04
2018-08-17T01:12:45.284Z,25.05
2018-08-17T01:15:13.832Z,25.04
2018-08-17T01:17:42.868Z,25.03
2018-08-17T01:20:12.578Z,25.03
2018-08-17T01:22:41.516Z,25.02
2018-08-17T01:25:10.049Z,25.03
2018-08-17T01:27:38.569Z,25.03
2018-08-17T01:30:08.422Z,25.03
2018-08-17T01:32:36.994Z,25.03
2018-08-17T01:35:05.887Z,25.02
2018-08-17T01:37:34.560Z,25.03
2018-08-17T01:40:03.134Z,25.02
2018-08-17T01:42:31.928Z,25.01
2018-08-17T01:45:00.461Z,25.02
2018-08-17T01:47:28.978Z,25.02
2018-08-17T01:49:57.514Z,25.02
2018-08-17T01:52:26.013Z,25.02
2018-08-17T01:54:55.050Z,25.01
2018-08-17T01:57:23.545Z,25.02
2018-08-17T01:59:52.064Z,25.00
2018-08-17T02:02:20.707Z,25.02
2018-08-17T02:04:49.242Z,25.01
2018-08-17T02:07:18.243Z,25.00
2018-08-17T02:09:47.329Z,25.01
2018-08-17T02:12:16.170Z,25.01
2018-08-17T02:14:44.808Z,25.01
2018-08-17T02:17:13.251Z,25.01
2018-08-17T02:19:42.313Z,25.01
2018-08-17T02:22:10.949Z,25.01
2018-08-17T02:24:39.613Z,25.01
2018-08-17T02:27:08.388Z,25.02
2018-08-17T02:29:36.883Z,25.02
2018-08-17T02:32:05.405Z,25.01
2018-08-17T02:34:34.011Z,25.00
2018-08-17T02:37:03.136Z,25.01
2018-08-17T02:39:32.469Z,25.01
2018-08-17T02:42:01.689Z,25.02
2018-08-17T02:44:30.526Z,25.00
2018-08-17T02:46:59.213Z,24.99
2018-08-17T02:49:27.758Z,25.00
2018-08-17T02:51:56.248Z,25.00
2018-08-17T02:54:24.776Z,25.00
2018-08-17T02:56:53.343Z,25.00
2018-08-17T02:59:21.977Z,25.00
2018-08-17T03:01:50.622Z,25.00
2018-08-17T03:04:19.285Z,24.99
2018-08-17T03:06:47.775Z,25.00
2018-08-17T03:09:16.334Z,24.99
2018-08-17T03:11:44.872Z,24.99
2018-08-17T03:14:13.478Z,24.99
2018-08-17T03:16:42.051Z,24.99
2018-08-17T03:19:10.602Z,24.98
2018-08-17T03:21:39.128Z,24.98
2018-08-17T03:24:07.717Z,24.98
2018-08-17T03:26:36.278Z,24.98
2018-08-17T03:29:04.933Z,24.98
2018-08-17T03:31:34.415Z,24.98
2018-08-17T03:34:03.733Z,24.98
2018-08-17T03:36:32.247Z,24.98
2018-08-17T03:39:00.739Z,24.98
2018-08-17T03:41:29.351Z,24.97
2018-08-17T03:43:59.054Z,24.97
2018-08-17T03:46:27.580Z,24.97
2018-08-17T03:48:56.115Z,24.97
2018-08-17T03:51:24.625Z,24.97
2018-08-17T03:53:53.180Z,24.98
2018-08-17T03:56:21.703Z,24.98
2018-08-17T03:58:50.268Z,24.96
2018-08-17T04:01:18.790Z,24.97
2018-08-17T04:03:47.348Z,24.97
2018-08-17T04:06:15.932Z,24.97
2018-08-17T04:08:44.517Z,24.97
2018-08-17T04:11:13.029Z,24.98
2018-08-17T04:13:41.554Z,24.98
2018-08-17T04:16:10.102Z,24.96
2018-08-17T04:18:38.706Z,24.97
2018-08-17T04:21:07.269Z,24.96
2018-08-17T04:23:35.828Z,24.96
2018-08-17T04:26:04.346Z,24.96
2018-08-17T04:28:32.846Z,24.96
2018-08-17T04:31:01.416Z,24.96
2018-08-17T04:33:29.925Z,24.96
2018-08-17T04:35:58.477Z,24.96
2018-08-17T04:38:26.987Z,24.96
2018-08-17T04:40:55.545Z,24.96
2018-08-17T04:43:24.067Z,24.95
2018-08-17T04:45:52.590Z,24.95
2018-08-17T04:48:21.113Z,24.96
2018-08-17T04:50:49.645Z,24.95
2018-08-17T04:53:18.185Z,24.96
2018-08-17T04:55:46.764Z,24.95
2018-08-17T04:58:15.385Z,24.96
2018-08-17T05:00:43.950Z,24.96
2018-08-17T05:03:12.484Z,24.96
2018-08-17T05:05:41.032Z,24.95
2018-08-17T05:08:09.628Z,24.95
2018-08-17T05:10:38.160Z,24.96
2018-08-17T05:13:06.962Z,24.95
2018-08-17T05:15:35.491Z,24.96
2018-08-17T05:18:04.030Z,24.95
2018-08-17T05:20:32.493Z,24.95
2018-08-17T05:23:01.015Z,24.95
2018-08-17T05:25:30.054Z,24.95
2018-08-17T05:27:58.597Z,24.93
2018-08-17T05:30:27.210Z,24.94
2018-08-17T05:32:55.766Z,24.95
2018-08-17T05:35:24.508Z,24.95
2018-08-17T05:37:53.032Z,24.95
2018-08-17T05:40:21.498Z,24.94
2018-08-17T05:42:50.000Z,24.93
2018-08-17T05:45:18.606Z,24.95
2018-08-17T05:47:47.255Z,24.94
2018-08-17T05:50:15.803Z,24.92
2018-08-17T05:52:44.307Z,24.92
2018-08-17T05:55:12.817Z,24.92
2018-08-17T05:57:41.311Z,24.93
2018-08-17T06:00:10.842Z,24.92
2018-08-17T06:02:39.611Z,24.93
2018-08-17T06:05:08.938Z,24.92
2018-08-17T06:07:37.874Z,24.92
2018-08-17T06:10:08.515Z,24.92
2018-08-17T06:12:37.056Z,24.92
2018-08-17T06:15:06.713Z,24.90
2018-08-17T06:17:35.248Z,24.78
2018-08-17T06:20:04.203Z,24.63
2018-08-17T06:22:32.797Z,24.42
2018-08-17T06:25:01.327Z,24.24
2018-08-17T06:27:29.835Z,24.13
2018-08-17T06:29:58.372Z,24.02
2018-08-17T06:32:26.966Z,23.91
2018-08-17T06:34:55.495Z,23.87
2018-08-17T06:37:24.098Z,23.83
2018-08-17T06:39:52.578Z,23.79
2018-08-17T06:42:21.098Z,23.75
2018-08-17T06:44:49.602Z,23.72
2018-08-17T06:47:18.069Z,23.72
2018-08-17T06:49:46.564Z,23.75
2018-08-17T06:52:15.078Z,23.76
2018-08-17T06:54:43.633Z,23.67
2018-08-17T06:57:12.171Z,23.60
2018-08-17T06:59:40.686Z,23.64
2018-08-17T07:02:09.299Z,23.71
2018-08-17T07:04:38.137Z,23.74
2018-08-17T07:07:06.902Z,23.79
2018-08-17T07:09:35.474Z,23.83
2018-08-17T07:12:03.928Z,23.86
2018-08-17T07:14:32.415Z,23.92
2018-08-17T07:17:00.953Z,23.94
2018-08-17T07:19:29.487Z,23.87
2018-08-17T07:21:57.960Z,23.91
2018-08-17T07:24:26.495Z,23.88
2018-08-17T07:26:55.031Z,23.91
2018-08-17T07:29:23.509Z,23.88
2018-08-17T07:31:52.096Z,23.97
2018-08-17T07:34:20.589Z,24.01
2018-08-17T07:36:49.095Z,24.04
2018-08-17T07:39:18.222Z,24.06
2018-08-17T07:41:46.813Z,24.12
2018-08-17T07:44:15.235Z,24.15
2018-08-17T07:46:43.743Z,24.21
2018-08-17T07:49:12.255Z,24.29
2018-08-17T07:51:40.785Z,24.42
2018-08-17T07:54:09.300Z,24.50
2018-08-17T07:56:37.850Z,24.58
2018-08-17T07:59:06.420Z,24.60
2018-08-17T08:01:34.967Z,24.61
2018-08-17T08:04:03.548Z,24.72
2018-08-17T08:06:32.181Z,24.77
2018-08-17T08:09:00.786Z,24.84
2018-08-17T08:11:29.276Z,24.92
2018-08-17T08:13:57.838Z,24.94
2018-08-17T08:16:26.381Z,25.01
2018-08-17T08:18:54.987Z,25.10
2018-08-17T08:21:23.694Z,25.06
2018-08-17T08:23:52.207Z,24.99
2018-08-17T08:26:20.720Z,24.99
2018-08-17T08:28:49.251Z,24.98
2018-08-17T08:31:17.779Z,24.93
2018-08-17T08:33:46.322Z,24.92
2018-08-17T08:36:14.939Z,24.93
2018-08-17T08:38:43.470Z,24.96
2018-08-17T08:41:11.978Z,25.00
2018-08-17T08:43:40.548Z,25.04
2018-08-17T08:46:09.083Z,25.08
2018-08-17T08:48:37.639Z,25.11
2018-08-17T08:51:06.470Z,25.17
2018-08-17T08:53:35.033Z,25.19
2018-08-17T08:56:03.620Z,25.22
2018-08-17T08:58:32.155Z,25.24
2018-08-17T09:01:00.665Z,25.25
2018-08-17T09:03:30.027Z,25.22
2018-08-17T09:05:58.527Z,25.26
2018-08-17T09:08:27.111Z,25.31
2018-08-17T09:10:55.619Z,25.32
2018-08-17T09:13:24.270Z,25.30
2018-08-17T09:15:52.842Z,25.31
2018-08-17T09:18:21.520Z,25.30
2018-08-17T09:20:56.719Z,25.30
2018-08-17T09:23:25.385Z,25.31
2018-08-17T09:25:53.951Z,25.33
2018-08-17T09:28:22.558Z,25.33
2018-08-17T09:30:51.083Z,25.33
2018-08-17T09:33:19.661Z,25.35
2018-08-17T09:35:48.274Z,25.36
2018-08-17T09:38:16.793Z,25.36
2018-08-17T09:40:45.298Z,25.38
2018-08-17T09:43:13.819Z,25.37
2018-08-17T09:45:42.399Z,25.37
2018-08-17T09:48:11.238Z,25.39
2018-08-17T09:50:39.809Z,25.40
2018-08-17T09:53:08.328Z,25.42
2018-08-17T09:55:36.910Z,25.43
2018-08-17T09:58:05.671Z,25.44
2018-08-17T10:00:44.739Z,25.44
2018-08-17T10:03:19.317Z,25.45
2018-08-17T10:05:48.159Z,25.45
2018-08-17T10:08:22.013Z,25.45
2018-08-17T10:10:50.801Z,25.44
2018-08-17T10:13:19.447Z,25.45
2018-08-17T10:15:48.310Z,25.45
2018-08-17T10:18:16.797Z,25.45
2018-08-17T10:20:45.706Z,25.47
2018-08-17T10:23:19.414Z,25.49
2018-08-17T10:25:47.932Z,25.48
2018-08-17T10:28:16.444Z,25.45
2018-08-17T10:30:44.924Z,25.42
2018-08-17T10:33:13.447Z,25.40
2018-08-17T10:35:41.932Z,25.38
2018-08-17T10:38:10.406Z,25.39
2018-08-17T10:40:39.155Z,25.38
2018-08-17T10:43:07.658Z,25.37
2018-08-17T10:45:36.170Z,25.38
2018-08-17T10:48:04.772Z,25.38
2018-08-17T10:50:34.775Z,25.37
2018-08-17T10:53:04.345Z,25.37
2018-08-17T10:55:41.061Z,25.37
2018-08-17T10:58:12.256Z,25.37
2018-08-17T11:00:40.740Z,25.36
2018-08-17T11:03:09.254Z,25.38
2018-08-17T11:05:37.747Z,25.36
2018-08-17T11:08:06.316Z,25.41
2018-08-17T11:10:35.017Z,25.40
2018-08-17T11:13:03.537Z,25.39
2018-08-17T11:15:32.102Z,25.39
2018-08-17T11:18:00.910Z,25.41
2018-08-17T11:20:29.463Z,25.41
2018-08-17T11:22:58.010Z,25.44
2018-08-17T11:25:26.519Z,25.46
2018-08-17T11:27:55.015Z,25.48
2018-08-17T11:30:23.578Z,25.50
2018-08-17T11:32:52.034Z,25.51
2018-08-17T11:35:20.520Z,25.52
2018-08-17T11:37:49.007Z,25.59
2018-08-17T11:40:17.491Z,25.62
2018-08-17T11:42:47.996Z,25.65
2018-08-17T11:45:23.570Z,25.66
2018-08-17T11:47:52.468Z,25.66
2018-08-17T11:50:22.314Z,25.65
2018-08-17T11:53:04.910Z,25.66
2018-08-17T11:55:34.265Z,25.65
2018-08-17T11:58:02.735Z,25.64
2018-08-17T12:00:35.634Z,25.64
2018-08-17T12:03:04.150Z,25.63
2018-08-17T12:05:32.610Z,25.65
2018-08-17T12:08:01.073Z,25.65
2018-08-17T12:10:29.542Z,25.63
2018-08-17T12:13:03.342Z,25.62
2018-08-17T12:15:33.131Z,25.62
2018-08-17T12:18:01.633Z,25.63
2018-08-17T12:20:30.503Z,25.63
2018-08-17T12:22:58.990Z,25.64
2018-08-17T12:25:27.480Z,25.63
2018-08-17T12:28:01.939Z,25.64
2018-08-17T12:30:30.405Z,25.61
2018-08-17T12:32:58.911Z,25.61
2018-08-17T12:35:27.387Z,25.59
2018-08-17T12:38:01.207Z,25.56
2018-08-17T12:40:33.806Z,25.55
2018-08-17T12:43:02.291Z,25.56
2018-08-17T12:45:30.779Z,25.56
2018-08-17T12:47:59.323Z,25.54
2018-08-17T12:50:27.801Z,25.41
2018-08-17T12:52:56.322Z,25.55
2018-08-17T12:55:24.787Z,25.57
2018-08-17T12:57:53.312Z,25.58
2018-08-17T13:00:21.752Z,25.59
2018-08-17T13:02:50.201Z,25.61
2018-08-17T13:05:18.649Z,25.59
2018-08-17T13:07:47.115Z,25.58
2018-08-17T13:10:15.658Z,25.56
2018-08-17T13:12:52.263Z,25.57
2018-08-17T13:15:20.923Z,25.59
2018-08-17T13:17:49.576Z,25.56
2018-08-17T13:20:18.674Z,25.56
2018-08-17T13:22:47.131Z,25.56
2018-08-17T13:25:15.847Z,25.56
2018-08-17T13:27:44.340Z,25.56
2018-08-17T13:30:14.523Z,25.55
2018-08-17T13:32:43.818Z,25.55
2018-08-17T13:35:13.048Z,25.53
2018-08-17T13:37:41.984Z,25.54
2018-08-17T13:40:11.317Z,25.54
2018-08-17T13:42:39.797Z,25.52
2018-08-17T13:45:09.690Z,25.54
2018-08-17T13:47:38.166Z,25.56
2018-08-17T13:50:07.174Z,25.58
2018-08-17T13:52:35.649Z,25.59
2018-08-17T13:55:04.106Z,25.58
2018-08-17T13:57:32.660Z,25.58
2018-08-17T14:00:01.131Z,25.57
2018-08-17T14:02:29.613Z,25.54
2018-08-17T14:04:58.082Z,25.54
2018-08-17T14:07:26.548Z,25.53
2018-08-17T14:09:55.066Z,25.55
2018-08-17T14:12:23.526Z,25.60
2018-08-17T14:14:51.999Z,25.62
2018-08-17T14:17:20.478Z,25.65
2018-08-17T14:19:48.990Z,25.67
2018-08-17T14:22:17.561Z,25.70
2018-08-17T14:24:46.051Z,25.71
2018-08-17T14:27:14.522Z,25.73
2018-08-17T14:29:42.983Z,25.79
2018-08-17T14:32:11.469Z,25.81
2018-08-17T14:34:39.935Z,25.81
2018-08-17T14:37:08.435Z,25.79
2018-08-17T14:39:36.897Z,25.78
2018-08-17T14:42:05.377Z,25.78
2018-08-17T14:44:33.843Z,25.75
2018-08-17T14:47:02.344Z,25.75
2018-08-17T14:49:30.879Z,25.74
2018-08-17T14:51:59.333Z,25.72
2018-08-17T14:54:27.808Z,25.71
2018-08-17T14:56:56.282Z,25.70
2018-08-17T14:59:24.759Z,25.67
2018-08-17T15:01:53.239Z,25.67
2018-08-17T15:04:21.702Z,25.67
2018-08-17T15:06:50.167Z,25.66
2018-08-17T15:09:18.635Z,25.65
2018-08-17T15:11:47.249Z,25.64
2018-08-17T15:14:15.698Z,25.63
2018-08-17T15:16:44.192Z,25.63
2018-08-17T15:19:13.289Z,25.62
2018-08-17T15:21:41.937Z,25.62
2018-08-17T15:24:11.011Z,25.61
2018-08-17T15:26:39.515Z,25.61
2018-08-17T15:29:08.004Z,25.61
2018-08-17T15:31:36.491Z,25.62
2018-08-17T15:34:05.003Z,25.60
2018-08-17T15:36:33.476Z,25.60
2018-08-17T15:39:01.937Z,25.61
2018-08-17T15:41:30.463Z,25.60
2018-08-17T15:43:58.888Z,25.60
2018-08-17T15:46:27.414Z,25.60
2018-08-17T15:48:57.267Z,25.60
2018-08-17T15:51:25.726Z,25.59
2018-08-17T15:53:54.282Z,25.60
2018-08-17T15:56:22.752Z,25.58
2018-08-17T15:58:51.234Z,25.59
2018-08-17T16:01:19.788Z,25.58
2018-08-17T16:03:48.273Z,25.59
2018-08-17T16:06:16.746Z,25.59
2018-08-17T16:08:45.209Z,25.57
2018-08-17T16:11:13.738Z,25.58
2018-08-17T16:13:42.287Z,25.57
2018-08-17T16:16:10.776Z,25.57
2018-08-17T16:18:39.270Z,25.56
2018-08-17T16:21:07.762Z,25.57
2018-08-17T16:23:36.294Z,25.56
2018-08-17T16:26:04.943Z,25.57
2018-08-17T16:28:33.411Z,25.56
2018-08-17T16:31:01.891Z,25.57
2018-08-17T16:33:30.403Z,25.57
2018-08-17T16:35:58.931Z,25.56
2018-08-17T16:38:27.398Z,25.56
2018-08-17T16:40:55.880Z,25.54
2018-08-17T16:43:34.452Z,25.55
2018-08-17T16:46:03.035Z,25.56
2018-08-17T16:48:31.491Z,25.55
2018-08-17T16:50:59.988Z,25.56
2018-08-17T16:53:28.513Z,25.56
2018-08-17T16:55:57.034Z,25.55
2018-08-17T16:58:25.499Z,25.56
2018-08-17T17:00:54.017Z,25.58
2018-08-17T17:03:22.570Z,25.61
2018-08-17T17:05:58.763Z,25.63
2018-08-17T17:08:27.405Z,25.66
2018-08-17T17:10:56.029Z,25.69
2018-08-17T17:13:24.734Z,25.70
2018-08-17T17:15:53.198Z,25.72
2018-08-17T17:18:21.718Z,25.73
2018-08-17T17:20:50.216Z,25.74
2018-08-17T17:23:18.678Z,25.75
2018-08-17T17:25:47.134Z,25.75
2018-08-17T17:28:15.603Z,25.74
2018-08-17T17:30:51.978Z,25.73
2018-08-17T17:33:20.849Z,25.72
2018-08-17T17:35:49.331Z,25.70
2018-08-17T17:38:17.804Z,25.68
2018-08-17T17:40:46.261Z,25.66
2018-08-17T17:43:14.708Z,25.66
2018-08-17T17:45:43.215Z,25.64
2018-08-17T17:48:11.682Z,25.62
2018-08-17T17:50:40.145Z,25.60
2018-08-17T17:53:08.633Z,25.58
2018-08-17T17:55:44.780Z,25.55
2018-08-17T17:58:13.685Z,25.56
2018-08-17T18:00:46.219Z,25.54
2018-08-17T18:03:14.810Z,25.54
2018-08-17T18:05:43.278Z,25.52
2018-08-17T18:08:17.056Z,25.53
2018-08-17T18:10:45.761Z,25.52
2018-08-17T18:13:14.214Z,25.50
2018-08-17T18:15:42.694Z,25.50
2018-08-17T18:18:11.186Z,25.50
2018-08-17T18:20:39.919Z,25.50
2018-08-17T18:23:08.391Z,25.48
2018-08-17T18:25:36.855Z,25.49
2018-08-17T18:28:05.322Z,25.46
2018-08-17T18:30:33.765Z,25.49
2018-08-17T18:33:02.381Z,25.51
2018-08-17T18:35:30.834Z,25.51
2018-08-17T18:37:59.315Z,25.52
2018-08-17T18:40:27.791Z,25.54
2018-08-17T18:42:56.258Z,25.55
2018-08-17T18:45:24.790Z,25.56
2018-08-17T18:47:53.254Z,25.57
2018-08-17T18:50:21.768Z,25.60
2018-08-17T18:52:50.279Z,25.61
2018-08-17T18:55:18.863Z,25.61
2018-08-17T18:57:47.371Z,25.63
2018-08-17T19:00:15.880Z,25.65
2018-08-17T19:02:44.416Z,25.67
2018-08-17T19:05:13.016Z,25.69
2018-08-17T19:07:41.550Z,25.71
2018-08-17T19:10:10.763Z,25.74
2018-08-17T19:12:39.305Z,25.75
2018-08-17T19:15:10.165Z,25.77
2018-08-17T19:17:39.064Z,25.79
2018-08-17T19:20:09.673Z,25.78
2018-08-17T19:22:41.107Z,25.80
2018-08-17T19:25:11.234Z,25.80
2018-08-17T19:27:40.503Z,25.80
2018-08-17T19:30:18.932Z,25.79
2018-08-17T19:32:47.900Z,25.81
2018-08-17T19:35:16.684Z,25.80
2018-08-17T19:37:45.238Z,25.80
2018-08-17T19:40:13.809Z,25.81
2018-08-17T19:42:42.429Z,25.81
2018-08-17T19:45:10.961Z,25.75
2018-08-17T19:47:39.524Z,25.76
2018-08-17T19:50:08.082Z,25.76
2018-08-17T19:52:36.614Z,25.73
2018-08-17T19:55:05.731Z,25.73
2018-08-17T19:57:34.314Z,25.72
2018-08-17T20:00:03.075Z,25.72
2018-08-17T20:02:31.600Z,25.70
2018-08-17T20:05:00.202Z,25.70
2018-08-17T20:07:28.741Z,25.68
2018-08-17T20:09:57.264Z,25.67
2018-08-17T20:12:25.970Z,25.66
2018-08-17T20:14:55.364Z,25.66
2018-08-17T20:17:23.975Z,25.64
2018-08-17T20:19:52.477Z,25.63
2018-08-17T20:22:23.263Z,25.63
2018-08-17T20:24:51.969Z,25.62
2018-08-17T20:27:21.063Z,25.61
2018-08-17T20:29:49.750Z,25.60
2018-08-17T20:32:18.287Z,25.57
2018-08-17T20:34:48.744Z,25.57
2018-08-17T20:37:18.048Z,25.57
2018-08-17T20:39:47.437Z,25.56
2018-08-17T20:42:15.972Z,25.55
2018-08-17T20:44:44.501Z,25.55
2018-08-17T20:47:13.065Z,25.54
2018-08-17T20:49:41.596Z,25.54
2018-08-17T20:52:10.117Z,25.53
2018-08-17T20:54:38.671Z,25.53
2018-08-17T20:57:07.259Z,25.51
2018-08-17T20:59:35.783Z,25.51
2018-08-17T21:02:04.315Z,25.50
2018-08-17T21:04:32.842Z,25.50
2018-08-17T21:07:01.382Z,25.50
2018-08-17T21:09:29.979Z,25.49
2018-08-17T21:11:58.474Z,25.49
2018-08-17T21:14:27.005Z,25.48
2018-08-17T21:16:55.518Z,25.48
2018-08-17T21:19:29.116Z,25.47
2018-08-17T21:21:57.640Z,25.48
2018-08-17T21:24:26.159Z,25.46
2018-08-17T21:26:54.707Z,25.47
2018-08-17T21:29:23.325Z,25.48
2018-08-17T21:31:52.401Z,25.47
2018-08-17T21:34:21.463Z,25.47
2018-08-17T21:36:50.474Z,25.46
2018-08-17T21:39:19.606Z,25.46
2018-08-17T21:41:49.011Z,25.47
2018-08-17T21:44:19.964Z,25.46
2018-08-17T21:46:54.602Z,25.45
2018-08-17T21:49:24.370Z,25.45
2018-08-17T21:51:57.531Z,25.45
2018-08-17T21:54:26.037Z,25.44
2018-08-17T21:56:54.959Z,25.45
2018-08-17T21:59:23.540Z,25.43
2018-08-17T22:01:52.592Z,25.44
2018-08-17T22:04:21.098Z,25.43
2018-08-17T22:06:49.626Z,25.43
2018-08-17T22:09:29.344Z,25.43
2018-08-17T22:11:57.857Z,25.43
2018-08-17T22:14:26.370Z,25.42
2018-08-17T22:16:54.846Z,25.43
2018-08-17T22:19:34.735Z,25.43
2018-08-17T22:22:03.277Z,25.42
2018-08-17T22:24:32.622Z,25.41
2018-08-17T22:27:01.161Z,25.42
2018-08-17T22:29:29.833Z,25.41
2018-08-17T22:31:58.345Z,25.41
2018-08-17T22:34:26.977Z,25.40
2018-08-17T22:36:55.479Z,25.40
2018-08-17T22:39:24.232Z,25.40
2018-08-17T22:41:52.809Z,25.40
2018-08-17T22:44:23.947Z,25.40
2018-08-17T22:47:06.023Z,25.39
2018-08-17T22:49:35.214Z,25.39
2018-08-17T22:52:05.238Z,25.39
2018-08-17T22:54:39.706Z,25.38
2018-08-17T22:57:08.612Z,25.39
2018-08-17T22:59:37.107Z,25.40
2018-08-17T23:02:05.660Z,25.39
2018-08-17T23:04:34.252Z,25.39
2018-08-17T23:07:02.967Z,25.39
2018-08-17T23:09:31.893Z,25.39
2018-08-17T23:12:00.387Z,25.39
2018-08-17T23:14:28.994Z,25.39
2018-08-17T23:16:57.690Z,25.38
2018-08-17T23:19:26.498Z,25.11
2018-08-17T23:21:55.196Z,25.39
2018-08-17T23:24:23.764Z,25.38
2018-08-17T23:26:52.288Z,25.38
2018-08-17T23:29:20.883Z,25.38
2018-08-17T23:31:49.392Z,25.40
2018-08-17T23:34:17.914Z,25.38
2018-08-17T23:36:46.451Z,25.39
2018-08-17T23:39:15.748Z,25.38
2018-08-17T23:41:44.257Z,25.38
2018-08-17T23:44:12.759Z,25.38
2018-08-17T23:46:41.256Z,25.38
2018-08-17T23:49:09.821Z,25.37
2018-08-17T23:51:38.342Z,25.37
2018-08-17T23:54:06.878Z,25.38
2018-08-17T23:56:36.294Z,25.37
2018-08-17T23:59:04.832Z,25.38
